TimeBST,TemperatureF,Dew PointF,Humidity,Sea Level PressureIn,VisibilityMPH,Wind Direction,Wind SpeedMPH,Gust SpeedMPH,PrecipitationIn,Events,Conditions,WindDirDegrees,DateUTC
12:20 AM,48.2,44.6,87,30.12,6.2,West,11.5,-,N/A,,Mostly Cloudy,260,2011-10-07 23:20:00
12:50 AM,48.2,42.8,82,30.15,6.2,West,9.2,-,N/A,,Overcast,260,2011-10-07 23:50:00
1:20 AM,48.2,42.8,82,30.15,6.2,West,9.2,-,N/A,,Mostly Cloudy,260,2011-10-08 00:20:00
1:50 AM,48.2,42.8,82,30.15,-9999.0,WSW,9.2,-,N/A,,Clear,250,2011-10-08 00:50:00
2:20 AM,48.2,42.8,82,30.12,6.2,West,6.9,-,N/A,,Scattered Clouds,260,2011-10-08 01:20:00
2:50 AM,48.2,42.8,82,30.12,6.2,West,11.5,-,N/A,,Overcast,270,2011-10-08 01:50:00
3:20 AM,48.2,44.6,87,30.12,6.2,WSW,8.1,-,N/A,,Mostly Cloudy,250,2011-10-08 02:20:00
3:50 AM,48.2,44.6,87,30.12,6.2,WSW,6.9,-,N/A,,Mostly Cloudy,250,2011-10-08 02:50:00
4:20 AM,48.2,44.6,87,30.09,6.2,SW,5.8,-,N/A,,Mostly Cloudy,230,2011-10-08 03:20:00
4:50 AM,48.2,46.4,93,30.12,6.2,West,6.9,-,N/A,,Mostly Cloudy,260,2011-10-08 03:50:00
5:20 AM,48.2,46.4,93,30.12,6.2,WSW,5.8,-,N/A,Rain,Light Rain,240,2011-10-08 04:20:00
5:50 AM,48.2,46.4,93,30.09,6.2,SW,4.6,-,N/A,,Mostly Cloudy,230,2011-10-08 04:50:00
6:20 AM,48.2,46.4,93,30.09,6.2,SW,4.6,-,N/A,,Mostly Cloudy,230,2011-10-08 05:20:00
6:50 AM,48.2,46.4,93,30.09,3.7,WSW,3.5,-,N/A,Rain,Light Rain,250,2011-10-08 05:50:00
7:20 AM,48.2,48.2,100,30.09,2.2,SW,4.6,-,N/A,Rain,Light Rain,230,2011-10-08 06:20:00
7:50 AM,48.2,48.2,100,30.09,2.2,Calm,Calm,-,N/A,Rain,Light Rain,0,2011-10-08 06:50:00
8:20 AM,48.2,48.2,100,30.06,2.2,SW,2.3,-,N/A,,Drizzle,220,2011-10-08 07:20:00
8:50 AM,50.0,50.0,100,30.06,3.7,SW,6.9,-,N/A,Rain,Light Rain,230,2011-10-08 07:50:00
9:20 AM,50.0,50.0,100,30.06,5.0,SW,4.6,-,N/A,Rain,Light Rain,230,2011-10-08 08:20:00
9:50 AM,51.8,50.0,94,30.06,5.0,Variable,2.3,-,N/A,Rain,Light Rain,0,2011-10-08 08:50:00
10:20 AM,51.8,50.0,94,30.06,5.0,Variable,3.5,-,N/A,Rain,Light Rain,0,2011-10-08 09:20:00
10:50 AM,51.8,50.0,94,30.06,1.1,Calm,Calm,-,N/A,Rain,Light Rain,0,2011-10-08 09:50:00
11:20 AM,51.8,51.8,100,30.06,-9999.0,Variable,3.5,-,N/A,Rain,Light Rain,0,2011-10-08 10:20:00
11:50 AM,53.6,51.8,94,30.06,2.2,Variable,2.3,-,N/A,Rain,Light Rain,0,2011-10-08 10:50:00
12:20 PM,53.6,51.8,94,30.06,1.6,Calm,Calm,-,N/A,,Light Drizzle,0,2011-10-08 11:20:00
12:50 PM,51.8,51.8,100,30.04,2.2,ENE,5.8,-,N/A,,Light Drizzle,60,2011-10-08 11:50:00
1:20 PM,51.8,51.8,100,30.04,2.5,ENE,4.6,-,N/A,,Light Drizzle,60,2011-10-08 12:20:00
1:50 PM,53.6,51.8,94,30.04,2.2,ENE,6.9,-,N/A,,Light Drizzle,60,2011-10-08 12:50:00
2:20 PM,53.6,51.8,94,30.04,3.1,ENE,5.8,-,N/A,Rain,Light Rain,60,2011-10-08 13:20:00
2:50 PM,53.6,53.6,100,30.04,3.7,Variable,3.5,-,N/A,Rain,Light Rain,0,2011-10-08 13:50:00
3:20 PM,53.6,53.6,100,30.04,3.7,Variable,2.3,-,N/A,Rain,Light Rain,0,2011-10-08 14:20:00
3:50 PM,53.6,53.6,100,30.01,2.5,Variable,3.5,-,N/A,Rain,Rain,0,2011-10-08 14:50:00
4:20 PM,53.6,53.6,100,29.98,5.6,ENE,5.8,-,N/A,Rain,Light Rain,60,2011-10-08 15:20:00
4:50 PM,53.6,53.6,100,29.98,3.1,NE,3.5,-,N/A,Rain,Light Rain,50,2011-10-08 15:50:00
5:20 PM,53.6,53.6,100,29.98,2.5,Variable,3.5,-,N/A,Rain,Rain,0,2011-10-08 16:20:00
5:50 PM,53.6,53.6,100,29.98,2.5,NNE,3.5,-,N/A,Rain,Rain,30,2011-10-08 16:50:00
6:20 PM,53.6,53.6,100,29.95,3.1,Variable,3.5,-,N/A,Rain,Light Rain,0,2011-10-08 17:20:00
6:50 PM,53.6,53.6,100,29.95,3.1,ENE,3.5,-,N/A,Rain,Light Rain,70,2011-10-08 17:50:00
7:20 PM,53.6,53.6,100,29.95,3.1,NNE,2.3,-,N/A,Rain,Light Rain,30,2011-10-08 18:20:00
7:50 PM,53.6,53.6,100,29.95,4.3,NE,3.5,-,N/A,Rain,Light Rain,50,2011-10-08 18:50:00
8:20 PM,53.6,53.6,100,29.95,4.3,East,3.5,-,N/A,Rain,Light Rain,100,2011-10-08 19:20:00
8:50 PM,53.6,53.6,100,29.92,4.3,East,4.6,-,N/A,Rain,Light Rain,90,2011-10-08 19:50:00
9:20 PM,53.6,53.6,100,29.92,3.1,Calm,Calm,-,N/A,Rain,Light Rain,0,2011-10-08 20:20:00
9:50 PM,55.4,55.4,100,29.92,6.2,Variable,3.5,-,N/A,,Light Drizzle,0,2011-10-08 20:50:00
10:20 PM,57.2,57.2,100,29.92,6.2,WSW,9.2,-,N/A,,Light Drizzle,250,2011-10-08 21:20:00
10:50 PM,57.2,55.4,94,29.92,6.2,WSW,9.2,-,N/A,,Light Drizzle,240,2011-10-08 21:50:00
11:20 PM,57.2,55.4,94,29.92,6.2,WSW,9.2,-,N/A,Rain,Light Rain,250,2011-10-08 22:20:00
11:50 PM,57.2,55.4,94,29.92,6.2,WSW,9.2,-,N/A,,Light Drizzle,250,2011-10-08 22:50:00